Time;durP1;ratioP1;P1;durP2;ratioP2;P2;SDS_P1;SDS_P2;PMS_P1;PMS_P2;Temp;Humidity;BMP_temperature;BMP_pressure;BME280_temperature;BME280_humidity;BME280_pressure;Samples;Min_cycle;Max_cycle;Signal;HPM_P1;HPM_P2
2023/03/18 00:12:56;;;;;;;4.72;2.17;;;;;;;-144.57;100.00;62443.72;4677316;30;20050;-64
2023/03/18 00:17:34;;;;;;;4.25;2.15;;;;;;;-144.57;100.00;62443.72;4643646;30;20070;-64
2023/03/18 00:40:03;;;;;;;;;;;;;;;;;;;;;
2023/03/18 02:18:13;;;;;;;4.10;2.22;;;;;;;-144.57;100.00;62443.72;4715277;30;20126;-64
2023/03/18 02:36:01;;;;;;;;;;;;;;;;;;;;;
2023/03/18 02:46:50;;;;;;;;;;;;;;;;;;;;;
2023/03/18 02:55:02;;;;;;;;;;;;;;;;;;;;;
2023/03/18 04:08:46;;;;;;;6.80;3.38;;;;;;;-144.57;100.00;62443.72;4695422;30;20084;-62
2023/03/18 04:46:32;;;;;;;;;;;;;;;;;;;;;
2023/03/18 05:31:03;;;;;;;5.85;3.45;;;;;;;-144.57;100.00;62443.72;4752378;24;20067;-64
2023/03/18 05:49:48;;;;;;;;;;;;;;;;;;;;;
2023/03/18 05:52:54;;;;;;;8.65;4.28;;;;;;;-144.57;100.00;62443.72;4671709;30;20053;-67
2023/03/18 05:55:22;;;;;;;10.35;3.88;;;;;;;-144.57;100.00;62443.72;4713494;30;20069;-65
2023/03/18 05:57:49;;;;;;;12.93;4.50;;;;;;;-144.57;100.00;62443.72;4683332;30;20076;-65
2023/03/18 06:00:19;;;;;;;11.10;3.78;;;;;;;-144.57;100.00;62443.72;4720234;30;20069;-64
2023/03/18 06:02:58;;;;;;;11.07;4.05;;;;;;;-144.57;100.00;62443.72;4717355;30;20069;-65
2023/03/18 06:05:25;;;;;;;7.57;3.70;;;;;;;-144.57;100.00;62443.72;4715696;30;20539;-66
2023/03/18 06:07:51;;;;;;;4.97;3.35;;;;;;;-144.57;100.00;62443.72;4699408;30;20057;-66
2023/03/18 06:10:17;;;;;;;9.38;3.60;;;;;;;-144.57;100.00;62443.72;4696473;30;20118;-65
2023/03/18 06:12:51;;;;;;;6.30;3.03;;;;;;;-144.57;100.00;62443.72;4700052;30;20092;-66
2023/03/18 06:15:17;;;;;;;8.85;3.35;;;;;;;-144.57;100.00;62443.72;4717091;30;20068;-65
2023/03/18 06:17:45;;;;;;;6.25;3.40;;;;;;;-144.57;100.00;62443.72;4700690;30;20057;-65
2023/03/18 06:20:14;;;;;;;6.70;3.25;;;;;;;-144.57;100.00;62443.72;4700922;30;20148;-65
2023/03/18 06:22:42;;;;;;;6.90;2.80;;;;;;;-144.57;100.00;62443.72;4687111;30;20052;-65
2023/03/18 06:25:08;;;;;;;9.00;3.10;;;;;;;-144.57;100.00;62443.72;4700706;30;20064;-64
2023/03/18 06:27:38;;;;;;;7.55;2.90;;;;;;;-144.57;100.00;62443.72;4715328;30;20151;-65
2023/03/18 06:30:05;;;;;;;9.02;2.90;;;;;;;-144.57;100.00;62443.72;4700462;30;20071;-63
2023/03/18 06:32:35;;;;;;;10.98;3.42;;;;;;;-144.57;100.00;62443.72;4686907;30;20061;-64
2023/03/18 06:35:02;;;;;;;9.70;3.33;;;;;;;-144.57;100.00;62443.72;4700115;30;20067;-66
2023/03/18 06:37:29;;;;;;;7.03;3.30;;;;;;;-144.57;100.00;62443.72;4705938;30;20084;-66
2023/03/18 06:39:55;;;;;;;8.70;3.13;;;;;;;-144.57;100.00;62443.72;4719481;30;20528;-65
2023/03/18 06:42:22;;;;;;;13.02;4.30;;;;;;;-144.57;100.00;62443.72;4719986;30;20057;-65
2023/03/18 06:45:00;;;;;;;9.30;3.30;;;;;;;-144.57;100.00;62443.72;4692199;30;20053;-65
2023/03/18 06:48:04;;;;;;;7.68;3.20;;;;;;;-144.57;100.00;62443.72;4691339;30;20061;-66
2023/03/18 06:50:32;;;;;;;10.60;2.95;;;;;;;-144.57;100.00;62443.72;4725761;30;20064;-66
2023/03/18 06:53:00;;;;;;;4.85;2.85;;;;;;;-144.57;100.00;62443.72;4737781;30;20084;-65
2023/03/18 06:55:29;;;;;;;4.70;2.90;;;;;;;-144.57;100.00;62443.72;4731276;30;20569;-64
2023/03/18 06:57:56;;;;;;;7.90;3.00;;;;;;;-144.57;100.00;62443.72;4737619;30;20087;-65
2023/03/18 07:00:32;;;;;;;7.40;2.97;;;;;;;-144.57;100.00;62443.72;4736412;30;20056;-63
2023/03/18 07:03:00;;;;;;;11.07;3.40;;;;;;;-144.57;100.00;62443.72;4715579;30;20515;-63
2023/03/18 07:05:28;;;;;;;4.97;2.67;;;;;;;-144.57;100.00;62443.72;4723974;30;20056;-64
2023/03/18 07:11:10;;;;;;;20.40;3.45;;;;;;;-144.57;100.00;62443.72;5712683;24;20260;31
2023/03/18 07:14:30;;;;;;;5.10;2.80;;;;;;;-144.57;100.00;62443.72;5705919;24;20032;31
2023/03/18 07:17:29;;;;;;;7.85;2.92;;;;;;;-144.57;100.00;62443.72;4709758;30;20131;-64
2023/03/18 07:24:40;;;;;;;13.38;3.05;;;;;;;-144.57;100.00;62443.72;4948413;24;20063;-66
2023/03/18 07:28:18;;;;;;;8.65;1.98;;;;;;;-144.57;100.00;62443.72;5133862;24;20040;31
2023/03/18 07:31:15;;;;;;;4.20;2.42;;;;;;;-144.57;100.00;62443.72;4599222;24;20072;-63
2023/03/18 07:33:45;;;;;;;4.95;2.10;;;;;;;-144.57;100.00;62443.72;4747899;30;20064;-63
2023/03/18 07:36:12;;;;;;;;;;;;;;;-144.57;100.00;62443.72;4738194;25;20129;-62
2023/03/18 07:38:45;;;;;;;8.85;2.13;;;;;;;-144.57;100.00;62443.72;4732459;30;19982;-64
2023/03/18 07:41:58;;;;;;;7.53;2.45;;;;;;;-144.57;100.00;62443.72;4749411;30;20056;-65
2023/03/18 07:51:22;;;;;;;8.10;2.80;;;;;;;-144.57;100.00;62443.72;4745700;30;20060;-66
2023/03/18 07:54:02;;;;;;;10.20;2.83;;;;;;;-144.57;100.00;62443.72;4771378;24;20124;-68
2023/03/18 07:56:30;;;;;;;8.15;3.30;;;;;;;-144.57;100.00;62443.72;4700990;30;20151;-65
2023/03/18 07:59:33;;;;;;;9.95;3.08;;;;;;;-144.57;100.00;62443.72;4709134;30;20246;-65
2023/03/18 08:02:28;;;;;;;6.00;2.50;;;;;;;-144.57;100.00;62443.72;4715172;30;20071;-65
2023/03/18 08:05:05;;;;;;;8.10;2.60;;;;;;;-144.57;100.00;62443.72;4695283;30;20072;-66
2023/03/18 08:07:36;;;;;;;3.33;2.47;;;;;;;-144.57;100.00;62443.72;4714439;30;20447;-63
2023/03/18 08:10:04;;;;;;;10.63;2.85;;;;;;;-144.57;100.00;62443.72;4713670;30;20615;-65
2023/03/18 08:12:42;;;;;;;5.82;2.50;;;;;;;-144.57;100.00;62443.72;4709881;30;20076;-67
2023/03/18 08:15:10;;;;;;;2.92;2.10;;;;;;;-144.57;100.00;62443.72;4712019;30;20220;-64
2023/03/18 08:17:37;;;;;;;5.05;2.08;;;;;;;-144.57;100.00;62443.72;4715761;30;20057;-65
2023/03/18 08:20:17;;;;;;;2.95;2.13;;;;;;;-144.57;100.00;62443.72;4701463;30;20053;-65
2023/03/18 08:22:44;;;;;;;;;;;;;;;-144.57;100.00;62443.72;4716933;30;20096;-65
2023/03/18 08:25:19;;;;;;;5.18;2.35;;;;;;;-144.57;100.00;62443.72;4716344;30;20187;-65
2023/03/18 08:31:02;;;;;;;3.83;2.00;;;;;;;-144.57;100.00;62443.72;4749164;30;20068;-64
2023/03/18 08:33:33;;;;;;;4.03;2.08;;;;;;;-144.57;100.00;62443.72;4737644;30;20109;-67
2023/03/18 08:36:04;;;;;;;7.13;2.42;;;;;;;-144.57;100.00;62443.72;4733069;30;20125;-63
2023/03/18 08:39:38;;;;;;;4.07;2.20;;;;;;;-144.57;100.00;62443.72;4723740;30;20434;-68
2023/03/18 08:42:37;;;;;;;5.28;2.42;;;;;;;-144.57;100.00;62443.72;4733851;30;20080;-68
2023/03/18 08:45:03;;;;;;;3.50;1.88;;;;;;;-144.57;100.00;62443.72;4731562;30;20143;-64
2023/03/18 08:47:59;;;;;;;6.20;2.30;;;;;;;-144.57;100.00;62443.72;4731807;30;20070;-65
2023/03/18 08:50:55;;;;;;;3.92;2.13;;;;;;;-144.57;100.00;62443.72;4702643;30;20138;-64
2023/03/18 08:53:58;;;;;;;4.47;2.50;;;;;;;-144.57;100.00;62443.72;4721438;30;20520;-65
2023/03/18 08:57:22;;;;;;;6.57;2.53;;;;;;;-144.57;100.00;62443.72;4682152;30;20547;-65
2023/03/18 09:04:02;;;;;;;;;;;;;;;;;;;;;
2023/03/18 09:06:30;;;;;;;4.80;1.90;;;;;;;-144.57;100.00;62443.72;4683256;30;20080;-64
2023/03/18 09:08:56;;;;;;;2.75;1.90;;;;;;;-144.57;100.00;62443.72;4655337;24;1758475;-64
2023/03/18 09:11:23;;;;;;;3.50;2.03;;;;;;;-144.57;100.00;62443.72;4714573;30;20053;-63
2023/03/18 09:13:49;;;;;;;6.10;2.08;;;;;;;-144.57;100.00;62443.72;4714050;30;20140;-62
2023/03/18 09:16:18;;;;;;;2.30;1.77;;;;;;;-144.57;100.00;62443.72;4706059;30;20199;-65
2023/03/18 09:18:47;;;;;;;2.85;1.95;;;;;;;-144.57;100.00;62443.72;4715126;30;20133;-63
2023/03/18 09:21:47;;;;;;;3.50;1.90;;;;;;;-144.57;100.00;62443.72;4698716;30;20149;-64
2023/03/18 09:25:14;;;;;;;;;;;;;;;;;;;;;
2023/03/18 09:28:47;;;;;;;7.10;2.15;;;;;;;-144.57;100.00;62443.72;4749098;30;20484;-65
2023/03/18 09:32:19;;;;;;;5.45;1.85;;;;;;;-144.57;100.00;62443.72;4696528;30;20066;-65
2023/03/18 09:34:45;;;;;;;6.20;1.98;;;;;;;-144.57;100.00;62443.72;4685122;30;20156;-64
2023/03/18 09:37:52;;;;;;;4.07;1.75;;;;;;;-144.57;100.00;62443.72;4754166;24;20138;-61
2023/03/18 09:40:51;;;;;;;7.10;1.90;;;;;;;-144.57;100.00;62443.72;4740300;30;20088;-63
2023/03/18 09:47:01;;;;;;;3.42;2.20;;;;;;;-144.57;100.00;62443.72;4727770;30;20060;-63
2023/03/18 09:49:54;;;;;;;4.78;1.90;;;;;;;-144.57;100.00;62443.72;4727737;30;20056;-65
2023/03/18 09:52:52;;;;;;;4.60;2.42;;;;;;;-144.57;100.00;62443.72;4706882;30;20061;-65
2023/03/18 09:59:22;;;;;;;2.90;1.60;;;;;;;-144.57;100.00;62443.72;4925529;24;20064;-64
2023/03/18 10:02:27;;;;;;;3.58;2.10;;;;;;;-144.57;100.00;62443.72;4756134;24;20100;-64
2023/03/18 10:04:59;;;;;;;4.70;1.80;;;;;;;-144.57;100.00;62443.72;4700881;30;20487;-64
2023/03/18 10:07:30;;;;;;;3.10;1.65;;;;;;;-144.57;100.00;62443.72;4713289;30;20068;-63
2023/03/18 10:10:02;;;;;;;2.10;1.70;;;;;;;-144.57;100.00;62443.72;4714216;30;20075;-64
2023/03/18 10:12:45;;;;;;;3.92;1.98;;;;;;;-144.57;100.00;62443.72;4714440;30;20068;-62
2023/03/18 10:16:07;;;;;;;2.88;1.65;;;;;;;-144.57;100.00;62443.72;4713311;30;20064;-64
2023/03/18 10:19:02;;;;;;;3.00;1.88;;;;;;;-144.57;100.00;62443.72;4732520;30;20060;-63
2023/03/18 10:21:52;;;;;;;5.55;1.92;;;;;;;-144.57;100.00;62443.72;4735390;30;20082;-63
2023/03/18 10:24:39;;;;;;;3.83;1.90;;;;;;;-144.57;100.00;62443.72;4749786;30;20095;-63
2023/03/18 10:27:22;;;;;;;3.78;1.90;;;;;;;-144.57;100.00;62443.72;4765199;30;20529;-64
2023/03/18 10:30:22;;;;;;;2.10;1.42;;;;;;;-144.57;100.00;62443.72;4764952;30;20080;-64
2023/03/18 10:33:10;;;;;;;3.95;2.08;;;;;;;-144.57;100.00;62443.72;4763714;30;20063;-65
2023/03/18 10:35:44;;;;;;;1.98;1.40;;;;;;;-144.57;100.00;62443.72;4747444;30;20508;-63
2023/03/18 10:38:19;;;;;;;5.53;1.63;;;;;;;-144.57;100.00;62443.72;4758672;30;20068;-63
2023/03/18 10:40:46;;;;;;;2.55;1.80;;;;;;;-144.57;100.00;62443.72;4759916;30;20124;-62
2023/03/18 10:43:25;;;;;;;2.92;1.90;;;;;;;-144.57;100.00;62443.72;4774556;30;20051;-63
2023/03/18 10:45:59;;;;;;;10.63;5.80;;;;;;;-144.57;100.00;62443.72;4736617;30;20048;-64
2023/03/18 10:48:35;;;;;;;1.75;1.23;;;;;;;-144.57;100.00;62443.72;4733359;30;20059;-65
2023/03/18 10:51:17;;;;;;;2.95;1.90;;;;;;;-144.57;100.00;62443.72;4746664;30;20064;-64
2023/03/18 10:54:21;;;;;;;2.40;1.50;;;;;;;-144.57;100.00;62443.72;4733641;30;20056;-63
2023/03/18 10:56:47;;;;;;;4.57;1.95;;;;;;;-144.57;100.00;62443.72;4730687;30;20619;-62
2023/03/18 10:59:16;;;;;;;3.00;1.85;;;;;;;-144.57;100.00;62443.72;4764131;30;20103;-63
2023/03/18 11:01:48;;;;;;;3.00;1.60;;;;;;;-144.57;100.00;62443.72;4764157;30;20146;-63
2023/03/18 11:04:18;;;;;;;1.42;1.30;;;;;;;-144.57;100.00;62443.72;4769766;30;20508;-64
2023/03/18 11:06:47;;;;;;;3.70;1.80;;;;;;;-144.57;100.00;62443.72;4770929;30;20058;-64
2023/03/18 11:09:18;;;;;;;2.80;2.00;;;;;;;-144.57;100.00;62443.72;4738524;30;20116;-63
2023/03/18 11:11:47;;;;;;;1.77;1.40;;;;;;;-144.57;100.00;62443.72;4745975;30;20076;-64
2023/03/18 11:14:16;;;;;;;2.50;1.75;;;;;;;-144.57;100.00;62443.72;4746487;30;20061;-64
2023/03/18 11:16:59;;;;;;;4.70;1.70;;;;;;;-144.57;100.00;62443.72;4746472;30;20341;-64
2023/03/18 11:19:40;;;;;;;2.75;1.70;;;;;;;-144.57;100.00;62443.72;4733073;30;20411;-64
2023/03/18 11:22:23;;;;;;;3.58;2.03;;;;;;;-144.57;100.00;62443.72;4746629;30;20060;-64
2023/03/18 11:25:13;;;;;;;3.40;1.88;;;;;;;-144.57;100.00;62443.72;4746174;30;20080;-65
2023/03/18 11:27:41;;;;;;;3.08;1.95;;;;;;;-144.57;100.00;62443.72;4733239;30;20243;-64
2023/03/18 11:30:28;;;;;;;3.63;1.70;;;;;;;-144.57;100.00;62443.72;4733251;30;20114;-64
2023/03/18 11:33:14;;;;;;;2.40;1.50;;;;;;;-144.57;100.00;62443.72;4746364;30;20575;-65
2023/03/18 11:35:59;;;;;;;4.75;2.65;;;;;;;-144.57;100.00;62443.72;4731285;30;20132;-64
2023/03/18 11:38:34;;;;;;;3.47;1.83;;;;;;;-144.57;100.00;62443.72;4730987;30;20065;-64
2023/03/18 11:41:07;;;;;;;2.88;1.90;;;;;;;-144.57;100.00;62443.72;4731738;30;20061;-66
2023/03/18 11:43:35;;;;;;;2.50;1.90;;;;;;;-144.57;100.00;62443.72;4731856;30;20088;-65
2023/03/18 11:46:04;;;;;;;2.80;1.70;;;;;;;-144.57;100.00;62443.72;4744997;30;20051;-65
2023/03/18 11:48:35;;;;;;;4.32;2.28;;;;;;;-144.57;100.00;62443.72;4757515;30;20056;-67
2023/03/18 11:51:33;;;;;;;2.47;1.63;;;;;;;-144.57;100.00;62443.72;4748388;30;20056;-65
2023/03/18 11:54:12;;;;;;;3.42;1.80;;;;;;;-144.57;100.00;62443.72;4764288;30;20075;-65
2023/03/18 11:56:57;;;;;;;4.28;2.25;;;;;;;-144.57;100.00;62443.72;4763838;30;20079;-65
2023/03/18 11:59:47;;;;;;;3.53;2.30;;;;;;;-144.57;100.00;62443.72;4748943;30;20060;-63
2023/03/18 12:02:48;;;;;;;3.55;2.17;;;;;;;-144.57;100.00;62443.72;4750368;30;20844;-65
2023/03/18 12:05:28;;;;;;;4.05;1.98;;;;;;;-144.57;100.00;62443.72;4763062;30;20086;-66
2023/03/18 12:08:02;;;;;;;1.77;1.67;;;;;;;-144.57;100.00;62443.72;4762550;30;20578;-66
2023/03/18 12:11:24;;;;;;;3.08;1.95;;;;;;;-144.57;100.00;62443.72;4749122;30;20518;-66
2023/03/18 12:14:03;;;;;;;2.58;1.92;;;;;;;-144.57;100.00;62443.72;4730919;30;20063;-66
2023/03/18 12:16:42;;;;;;;3.15;1.77;;;;;;;-144.57;100.00;62443.72;4733189;30;20064;-64
2023/03/18 12:19:38;;;;;;;2.35;1.75;;;;;;;-144.57;100.00;62443.72;4746829;30;20069;-62
2023/03/18 12:25:46;;;;;;;2.83;1.80;;;;;;;-144.57;100.00;62443.72;4747898;30;20064;-62
2023/03/18 12:28:41;;;;;;;2.55;1.70;;;;;;;-144.57;100.00;62443.72;4762488;30;20064;-61
2023/03/18 12:31:28;;;;;;;4.20;2.20;;;;;;;-144.57;100.00;62443.72;4762206;30;20079;-63
2023/03/18 12:34:00;;;;;;;3.65;2.00;;;;;;;-144.57;100.00;62443.72;4748939;30;20106;-62
2023/03/18 12:37:05;;;;;;;4.88;1.92;;;;;;;-144.57;100.00;62443.72;4746993;30;20479;-63
2023/03/18 12:39:51;;;;;;;4.65;2.03;;;;;;;-144.57;100.00;62443.72;4728120;30;20060;-63
2023/03/18 12:42:38;;;;;;;5.40;2.10;;;;;;;-144.57;100.00;62443.72;4748784;30;20130;-63
2023/03/18 12:45:12;;;;;;;6.65;1.73;;;;;;;-144.57;100.00;62443.72;4749673;30;20071;-62
2023/03/18 12:47:43;;;;;;;3.15;1.60;;;;;;;-144.57;100.00;62443.72;4748897;30;20060;-64
2023/03/18 12:50:16;;;;;;;4.68;1.70;;;;;;;-144.57;100.00;62443.72;4748186;30;20438;-63
2023/03/18 12:52:46;;;;;;;2.40;1.60;;;;;;;-144.57;100.00;62443.72;4750152;30;20060;-62
2023/03/18 12:55:25;;;;;;;3.90;2.35;;;;;;;-144.57;100.00;62443.72;4749699;30;20159;-61
2023/03/18 12:58:04;;;;;;;3.22;1.80;;;;;;;-144.57;100.00;62443.72;4750256;30;20131;-62
2023/03/18 13:00:33;;;;;;;3.60;2.00;;;;;;;-144.57;100.00;62443.72;4749991;30;20088;-62
2023/03/18 13:03:08;;;;;;;2.10;1.50;;;;;;;-144.57;100.00;62443.72;4765449;30;20048;-62
2023/03/18 13:05:45;;;;;;;1.70;1.45;;;;;;;-144.57;100.00;62443.72;4752445;30;20057;-62
2023/03/18 13:08:40;;;;;;;2.25;1.50;;;;;;;-144.57;100.00;62443.72;4766833;30;20064;-63
2023/03/18 13:11:18;;;;;;;3.08;2.08;;;;;;;-144.57;100.00;62443.72;4753421;30;20150;-62
2023/03/18 13:13:49;;;;;;;2.40;1.67;;;;;;;-144.57;100.00;62443.72;4753230;30;20549;-62
2023/03/18 13:16:14;;;;;;;2.58;1.85;;;;;;;-144.57;100.00;62443.72;4766795;30;20068;-62
2023/03/18 13:18:43;;;;;;;3.88;1.77;;;;;;;-144.57;100.00;62443.72;4752085;30;20067;-62
2023/03/18 13:21:17;;;;;;;4.68;1.88;;;;;;;-144.57;100.00;62443.72;4751885;30;20056;-62
2023/03/18 13:24:04;;;;;;;2.33;1.30;;;;;;;-144.57;100.00;62443.72;4779209;30;20526;-62
2023/03/18 13:27:00;;;;;;;4.15;1.85;;;;;;;-144.57;100.00;62443.72;4762000;30;20048;-62
2023/03/18 13:29:45;;;;;;;2.72;1.63;;;;;;;-144.57;100.00;62443.72;4761096;30;20411;-62
2023/03/18 13:32:24;;;;;;;2.42;1.50;;;;;;;-144.57;100.00;62443.72;4762486;30;20150;-63
2023/03/18 13:35:15;;;;;;;2.90;1.93;;;;;;;-144.57;100.00;62443.72;4762264;30;20087;-62
2023/03/18 13:37:59;;;;;;;2.60;1.20;;;;;;;-144.57;100.00;62443.72;4774112;30;20477;-62
2023/03/18 13:40:27;;;;;;;2.55;1.60;;;;;;;-144.57;100.00;62443.72;4760906;30;20431;-61
2023/03/18 13:42:58;;;;;;;1.65;1.40;;;;;;;-144.57;100.00;62443.72;4754999;30;20105;-62
2023/03/18 13:45:39;;;;;;;3.05;1.73;;;;;;;-144.57;100.00;62443.72;4751597;30;20470;-62
2023/03/18 13:48:11;;;;;;;4.38;1.40;;;;;;;-144.57;100.00;62443.72;4751355;30;20052;-62
2023/03/18 13:50:41;;;;;;;2.75;1.90;;;;;;;-144.57;100.00;62443.72;4751725;30;20048;-62
2023/03/18 13:53:37;;;;;;;2.72;1.92;;;;;;;-144.57;100.00;62443.72;4751731;30;20408;-62
2023/03/18 13:56:05;;;;;;;4.20;1.60;;;;;;;-144.57;100.00;62443.72;4765962;30;20056;-62
2023/03/18 13:58:51;;;;;;;4.43;1.90;;;;;;;-144.57;100.00;62443.72;4765901;30;20068;-62
2023/03/18 14:01:22;;;;;;;2.92;1.60;;;;;;;-144.57;100.00;62443.72;4752625;30;20075;-63
2023/03/18 14:03:48;;;;;;;3.05;1.98;;;;;;;-144.57;100.00;62443.72;4752810;30;20056;-62
2023/03/18 14:06:23;;;;;;;2.20;1.55;;;;;;;-144.57;100.00;62443.72;4752666;30;20059;-62
2023/03/18 14:08:50;;;;;;;4.25;1.95;;;;;;;-144.57;100.00;62443.72;4752360;30;20075;-63
2023/03/18 14:11:16;;;;;;;3.25;1.83;;;;;;;-144.57;100.00;62443.72;4752559;30;20053;-63
2023/03/18 14:13:43;;;;;;;3.42;1.75;;;;;;;-144.57;100.00;62443.72;4751884;30;20070;-63
2023/03/18 14:16:10;;;;;;;2.15;1.80;;;;;;;-144.57;100.00;62443.72;4765618;30;20213;-63
2023/03/18 14:18:36;;;;;;;2.40;1.40;;;;;;;-144.57;100.00;62443.72;4766157;30;20150;-62
2023/03/18 14:21:06;;;;;;;3.58;1.48;;;;;;;-144.57;100.00;62443.72;4752185;30;20066;-63
2023/03/18 14:23:41;;;;;;;4.43;1.45;;;;;;;-144.57;100.00;62443.72;4752434;30;20059;-62
2023/03/18 14:26:19;;;;;;;4.00;1.77;;;;;;;-144.57;100.00;62443.72;4752068;30;20088;-62
2023/03/18 14:28:49;;;;;;;3.38;1.70;;;;;;;-144.57;100.00;62443.72;4763721;30;20064;-61
2023/03/18 14:31:37;;;;;;;2.47;1.70;;;;;;;-144.57;100.00;62443.72;4760902;30;20056;-63
2023/03/18 14:34:13;;;;;;;6.10;1.90;;;;;;;-144.57;100.00;62443.72;4768283;30;20051;-63
2023/03/18 14:37:29;;;;;;;8.02;1.98;;;;;;;-144.57;100.00;62443.72;4756916;30;20060;-62
2023/03/18 14:39:59;;;;;;;2.95;1.60;;;;;;;-144.57;100.00;62443.72;4767148;30;20068;-62
2023/03/18 14:42:28;;;;;;;2.15;1.58;;;;;;;-144.57;100.00;62443.72;4783474;30;20105;-62
2023/03/18 14:45:01;;;;;;;4.00;2.08;;;;;;;-144.57;100.00;62443.72;4769378;30;20605;-63
2023/03/18 14:48:05;;;;;;;4.20;1.80;;;;;;;-144.57;100.00;62443.72;4769893;30;20071;-62
2023/03/18 14:50:44;;;;;;;2.88;1.92;;;;;;;-144.57;100.00;62443.72;4730592;30;20052;-62
2023/03/18 14:53:31;;;;;;;3.30;2.08;;;;;;;-144.57;100.00;62443.72;4767043;30;21480;-64
2023/03/18 14:55:58;;;;;;;2.35;1.70;;;;;;;-144.57;100.00;62443.72;4748325;30;20415;-63
2023/03/18 14:58:27;;;;;;;3.35;1.95;;;;;;;-144.57;100.00;62443.72;4761794;30;20056;-64
2023/03/18 15:00:56;;;;;;;7.28;1.75;;;;;;;-144.57;100.00;62443.72;4748519;30;20527;-65
2023/03/18 15:03:30;;;;;;;4.82;1.80;;;;;;;-144.57;100.00;62443.72;4732960;30;20068;-62
2023/03/18 15:06:02;;;;;;;2.50;2.00;;;;;;;-144.57;100.00;62443.72;4747882;30;20049;-62
2023/03/18 15:08:31;;;;;;;2.92;1.80;;;;;;;-144.57;100.00;62443.72;4756866;30;20064;-65
2023/03/18 15:10:58;;;;;;;5.13;2.65;;;;;;;-144.57;100.00;62443.72;4749992;30;20124;-64
2023/03/18 15:13:27;;;;;;;3.45;2.00;;;;;;;-144.57;100.00;62443.72;4750724;30;20060;-64
2023/03/18 15:15:55;;;;;;;;;;;;;;;-144.57;100.00;62443.72;4749809;30;20060;-64
2023/03/18 15:18:29;;;;;;;3.42;1.83;;;;;;;-144.57;100.00;62443.72;4750851;30;19930;-62
2023/03/18 15:21:01;;;;;;;2.83;2.20;;;;;;;-144.57;100.00;62443.72;4763259;30;20101;-66
2023/03/18 15:23:32;;;;;;;3.65;2.00;;;;;;;-144.57;100.00;62443.72;4750247;30;20064;-67
2023/03/18 15:25:58;;;;;;;5.55;2.53;;;;;;;-144.57;100.00;62443.72;4741661;30;20052;-64
2023/03/18 15:28:27;;;;;;;7.40;2.95;;;;;;;-144.57;100.00;62443.72;4754773;30;20055;-65
2023/03/18 15:30:58;;;;;;;4.63;2.58;;;;;;;-144.57;100.00;62443.72;4775090;30;20051;-65
2023/03/18 15:33:35;;;;;;;3.78;2.25;;;;;;;-144.57;100.00;62443.72;4772898;30;20059;-63
2023/03/18 15:36:10;;;;;;;4.40;2.40;;;;;;;-144.57;100.00;62443.72;4759820;30;20147;-65
2023/03/18 15:38:36;;;;;;;6.43;2.15;;;;;;;-144.57;100.00;62443.72;4757624;30;20059;-66
2023/03/18 15:41:07;;;;;;;4.25;2.20;;;;;;;-144.57;100.00;62443.72;4771427;30;20072;-67
2023/03/18 15:43:40;;;;;;;7.03;3.75;;;;;;;-144.57;100.00;62443.72;4759028;30;20530;-64
2023/03/18 15:46:13;;;;;;;5.50;2.88;;;;;;;-144.57;100.00;62443.72;4773551;30;20060;-65
2023/03/18 15:48:41;;;;;;;7.20;3.30;;;;;;;-144.57;100.00;62443.72;4759906;30;20064;-66
2023/03/18 15:51:26;;;;;;;9.63;3.78;;;;;;;-144.57;100.00;62443.72;4739272;30;20583;-64
2023/03/18 15:54:24;;;;;;;9.52;4.18;;;;;;;-144.57;100.00;62443.72;4752841;30;20570;-67
2023/03/18 15:56:52;;;;;;;12.50;4.88;;;;;;;-144.57;100.00;62443.72;4765424;30;20473;-64
2023/03/18 15:59:27;;;;;;;7.82;4.60;;;;;;;-144.57;100.00;62443.72;4763609;30;20153;-63
2023/03/18 16:01:57;;;;;;;10.10;4.50;;;;;;;-144.57;100.00;62443.72;4766702;30;20426;-62
2023/03/18 16:04:23;;;;;;;7.50;3.80;;;;;;;-144.57;100.00;62443.72;4781547;30;20142;-63
2023/03/18 16:06:51;;;;;;;5.78;3.80;;;;;;;-144.57;100.00;62443.72;4767662;30;20064;-63
2023/03/18 16:09:24;;;;;;;6.50;3.67;;;;;;;-144.57;100.00;62443.72;4759241;30;20094;-66
2023/03/18 16:11:53;;;;;;;7.85;4.05;;;;;;;-144.57;100.00;62443.72;4750309;30;20406;-66
2023/03/18 16:14:21;;;;;;;7.70;4.30;;;;;;;-144.57;100.00;62443.72;4750087;30;20533;-64
2023/03/18 16:16:47;;;;;;;5.28;3.25;;;;;;;-144.57;100.00;62443.72;4763512;30;20068;-64
2023/03/18 16:19:27;;;;;;;6.57;3.75;;;;;;;-144.57;100.00;62443.72;4749836;30;20056;-63
2023/03/18 16:21:55;;;;;;;11.15;5.40;;;;;;;-144.57;100.00;62443.72;4750057;30;20064;-64
2023/03/18 16:24:21;;;;;;;10.95;4.80;;;;;;;-144.57;100.00;62443.72;4763824;30;20067;-65
2023/03/18 16:26:48;;;;;;;11.57;5.13;;;;;;;-144.57;100.00;62443.72;4749165;30;20063;-65
2023/03/18 16:29:30;;;;;;;9.02;3.90;;;;;;;-144.57;100.00;62443.72;4748744;30;20120;-64
2023/03/18 16:31:56;;;;;;;10.98;4.13;;;;;;;-144.57;100.00;62443.72;4763714;30;20048;-65
2023/03/18 16:34:22;;;;;;;7.85;4.07;;;;;;;-144.57;100.00;62443.72;4763484;30;20143;-64
2023/03/18 16:36:49;;;;;;;11.15;4.10;;;;;;;-144.57;100.00;62443.72;4751164;30;20068;-65
2023/03/18 16:39:32;;;;;;;6.10;4.18;;;;;;;-144.57;100.00;62443.72;4752371;30;20056;-63
2023/03/18 16:41:59;;;;;;;12.10;5.38;;;;;;;-144.57;100.00;62443.72;4753371;30;20141;-64
2023/03/18 16:44:25;;;;;;;11.23;6.18;;;;;;;-144.57;100.00;62443.72;4766741;30;20098;-65
2023/03/18 16:46:53;;;;;;;18.27;6.90;;;;;;;-144.57;100.00;62443.72;4751904;30;20509;-63
2023/03/18 16:49:22;;;;;;;12.30;6.53;;;;;;;-144.57;100.00;62443.72;4768660;30;20063;-61
2023/03/18 16:51:49;;;;;;;12.93;5.97;;;;;;;-144.57;100.00;62443.72;4750571;30;20058;-66
2023/03/18 16:54:22;;;;;;;11.45;5.78;;;;;;;-144.57;100.00;62443.72;4774084;30;20064;-65
2023/03/18 16:57:01;;;;;;;15.35;7.28;;;;;;;-144.57;100.00;62443.72;4743449;30;20060;-65
2023/03/18 16:59:35;;;;;;;10.98;5.55;;;;;;;-144.57;100.00;62443.72;4772540;30;20063;-63
2023/03/18 17:02:03;;;;;;;18.25;5.15;;;;;;;-144.57;100.00;62443.72;4757444;30;20109;-64
2023/03/18 17:04:35;;;;;;;19.15;5.88;;;;;;;-144.57;100.00;62443.72;4759544;30;20143;-63
2023/03/18 17:07:03;;;;;;;18.75;6.05;;;;;;;-144.57;100.00;62443.72;4760660;30;20406;-64
2023/03/18 17:09:30;;;;;;;16.45;6.82;;;;;;;-144.57;100.00;62443.72;4761128;30;20530;-63
2023/03/18 17:12:03;;;;;;;18.52;6.07;;;;;;;-144.57;100.00;62443.72;4760873;30;20087;-62
2023/03/18 17:14:36;;;;;;;14.93;7.28;;;;;;;-144.57;100.00;62443.72;4759229;30;20063;-62
2023/03/18 17:17:05;;;;;;;36.47;13.75;;;;;;;-144.57;100.00;62443.72;4759055;30;20443;-62
2023/03/18 17:19:31;;;;;;;33.67;13.93;;;;;;;-144.57;100.00;62443.72;4767372;30;20066;-64
2023/03/18 17:21:57;;;;;;;31.60;12.52;;;;;;;-144.57;100.00;62443.72;4750847;30;20056;-64
2023/03/18 17:24:24;;;;;;;20.63;9.00;;;;;;;-144.57;100.00;62443.72;4751580;30;20068;-63
2023/03/18 17:26:51;;;;;;;16.02;7.30;;;;;;;-144.57;100.00;62443.72;4757670;30;20055;-64
2023/03/18 17:29:26;;;;;;;15.30;7.55;;;;;;;-144.57;100.00;62443.72;4758246;30;20151;-62
2023/03/18 17:31:53;;;;;;;16.73;8.57;;;;;;;-144.57;100.00;62443.72;4751400;30;20504;-63
2023/03/18 17:34:19;;;;;;;42.25;18.13;;;;;;;-144.57;100.00;62443.72;4754900;30;20206;-63
2023/03/18 17:36:46;;;;;;;41.88;17.08;;;;;;;-144.57;100.00;62443.72;4750846;30;20064;-63
2023/03/18 17:39:13;;;;;;;44.25;17.13;;;;;;;-144.57;100.00;62443.72;4751231;30;20075;-63
2023/03/18 17:41:40;;;;;;;33.58;15.70;;;;;;;-144.57;100.00;62443.72;4765600;30;20071;-62
2023/03/18 17:44:18;;;;;;;33.50;15.15;;;;;;;-144.57;100.00;62443.72;4752045;30;20071;-64
2023/03/18 17:46:43;;;;;;;22.60;9.65;;;;;;;-144.57;100.00;62443.72;4752608;30;20091;-63
2023/03/18 17:49:10;;;;;;;19.52;9.55;;;;;;;-144.57;100.00;62443.72;4750457;30;20088;-63
2023/03/18 17:51:37;;;;;;;12.10;7.07;;;;;;;-144.57;100.00;62443.72;4767828;30;20064;-63
2023/03/18 17:54:05;;;;;;;14.35;6.53;;;;;;;-144.57;100.00;62443.72;4760043;30;20075;-62
2023/03/18 17:56:31;;;;;;;18.02;5.82;;;;;;;-144.57;100.00;62443.72;4759997;30;20408;-63
2023/03/18 17:58:57;;;;;;;15.20;5.22;;;;;;;-144.57;100.00;62443.72;4763609;30;20066;-63
2023/03/18 18:01:25;;;;;;;18.52;5.05;;;;;;;-144.57;100.00;62443.72;4765449;30;20056;-64